^^
Meteo Knjazevac Station Historical Data
Daily Summary for March 23, 2021 Units:  English    Metric   Both
Daily Weekly Monthly Yearly Custom
  High: Low: Average:
Temperature: 85.6 °F 54.7 °F 69.6 °F
Dew Point: 66.6 °F 53.9 °F 60.6 °F
Humidity: 99% 47% 76%
Wind Speed: 5mph 0mph 1.1mph
Wind Gust: 10mph - -
Wind- - SW
Pressure: 30.12 in 30.02 in -
Precipitation: 0.00 in    
Historical Graphs
 
 
Tabular Data for March 23, 2021
Time Temperature Dew Point Pressure Wind Wind Speed Wind Gust Humidity Rainfall Rate (Hourly) solar Conditions
00:00 62.2 °F 59.5 °F 30.12 in Calm   1 mph 91% 0.00 in 0 W/m2
00:10 61.8 °F 58.8 °F 30.12 in WNW 1 mph 2 mph 90% 0.00 in 0 W/m2
00:20 61 °F 58.4 °F 30.12 in Calm   2 mph 91% 0.00 in 0 W/m2
00:30 61 °F 58.3 °F 30.12 in NW 1 mph 2 mph 91% 0.00 in 0 W/m2
00:40 60.6 °F 58 °F 30.12 in West 1 mph 2 mph 91% 0.00 in 0 W/m2
00:50 60.3 °F 58.2 °F 30.12 in Calm   2 mph 93% 0.00 in 0 W/m2
01:00 60.1 °F 58.1 °F 30.12 in Calm   2 mph 93% 0.00 in 0 W/m2
01:10 60.1 °F 58 °F 30.12 in Calm   2 mph 93% 0.00 in 0 W/m2
01:20 59.7 °F 57.7 °F 30.12 in West 1 mph 2 mph 93% 0.00 in 0 W/m2
01:30 59.5 °F 57.8 °F 30.12 in Calm   2 mph 94% 0.00 in 0 W/m2
01:40 59.2 °F 57.5 °F 30.12 in Calm   2 mph 94% 0.00 in 0 W/m2
01:50 59 °F 57.3 °F 30.12 in West 1 mph 2 mph 94% 0.00 in 0 W/m2
02:00 58.8 °F 57.1 °F 30.12 in Calm   2 mph 94% 0.00 in 0 W/m2
02:10 58.5 °F 56.7 °F 30.12 in West 1 mph 2 mph 94% 0.00 in 0 W/m2
02:20 58.3 °F 56.9 °F 30.12 in Calm   2 mph 95% 0.00 in 0 W/m2
02:30 58.3 °F 56.9 °F 30.12 in WNW 2 mph 3 mph 95% 0.00 in 0 W/m2
02:40 58.1 °F 56.7 °F 30.12 in West 1 mph 3 mph 95% 0.00 in 0 W/m2
02:50 57.8 °F 56.3 °F 30.12 in WNW 1 mph 2 mph 95% 0.00 in 0 W/m2
03:00 57.7 °F 56.3 °F 30.12 in Calm   2 mph 95% 0.00 in 0 W/m2
03:10 57.7 °F 56.3 °F 30.12 in WNW 1 mph 2 mph 95% 0.00 in 0 W/m2
03:20 57.4 °F 56 °F 30.12 in Calm   2 mph 95% 0.00 in 0 W/m2
03:30 57.2 °F 55.8 °F 30.12 in WSW 1 mph 2 mph 95% 0.00 in 0 W/m2
03:40 57 °F 55.9 °F 30.12 in WNW 1 mph 3 mph 96% 0.00 in 0 W/m2
03:50 56.8 °F 55.7 °F 30.12 in Calm   2 mph 96% 0.00 in 0 W/m2
04:00 56.5 °F 55.4 °F 30.12 in Calm   2 mph 96% 0.00 in 0 W/m2
04:10 56.3 °F 55.2 °F 30.12 in Calm   2 mph 96% 0.00 in 0 W/m2
04:20 56.1 °F 54.7 °F 30.12 in Calm   2 mph 95% 0.00 in 0 W/m2
04:30 55.8 °F 54.7 °F 30.12 in WNW 1 mph 2 mph 96% 0.00 in 0 W/m2
04:40 55.6 °F 54.5 °F 30.12 in WSW 2 mph 3 mph 96% 0.00 in 0 W/m2
04:50 55.4 °F 54.3 °F 30.12 in West 1 mph 3 mph 96% 0.00 in 0 W/m2
05:00 55.4 °F 54.3 °F 30.12 in Calm   2 mph 96% 0.00 in 0 W/m2
05:10 55.2 °F 54.1 °F 30.12 in Calm   2 mph 96% 0.00 in 0 W/m2
05:20 55.1 °F 54.5 °F 30.12 in NW 1 mph 2 mph 98% 0.00 in 7 W/m2
05:30 55 °F 54.5 °F 30.12 in NNW 1 mph 3 mph 98% 0.00 in 14 W/m2
05:40 55 °F 53.9 °F 30.12 in Calm   2 mph 96% 0.00 in 22 W/m2
05:50 54.9 °F 54.3 °F 30.12 in NW 1 mph 2 mph 98% 0.00 in 32 W/m2
06:00 54.7 °F 54.1 °F 30.12 in West 1 mph 2 mph 98% 0.00 in 48 W/m2
06:10 54.7 °F 54.1 °F 30.12 in Calm   2 mph 98% 0.00 in 58 W/m2
06:20 54.7 °F 54.1 °F 30.12 in West 1 mph 2 mph 98% 0.00 in 64 W/m2
06:30 54.9 °F 54.3 °F 30.12 in Calm   3 mph 98% 0.00 in 74 W/m2
06:40 55 °F 54.7 °F 30.12 in Calm   2 mph 99% 0.00 in 93 W/m2
06:50 55.2 °F 54.9 °F 30.12 in West 2 mph 2 mph 99% 0.00 in 111 W/m2
07:00 55.7 °F 55.5 °F 30.12 in WNW 1 mph 3 mph 99% 0.00 in 155 W/m2
07:10 56.1 °F 55.8 °F 30.12 in WNW 1 mph 3 mph 99% 0.00 in 133 W/m2
07:20 56.8 °F 56.6 °F 30.12 in West 1 mph 3 mph 99% 0.00 in 146 W/m2
07:30 57.2 °F 56.9 °F 30.12 in WSW 1 mph 2 mph 99% 0.00 in 196 W/m2
07:40 57.7 °F 57.5 °F 30.12 in Calm   2 mph 99% 0.00 in 325 W/m2
07:50 58.5 °F 58.2 °F 30.12 in West 1 mph 3 mph 99% 0.00 in 234 W/m2
08:00 59.2 °F 58.9 °F 30.12 in WSW 1 mph 2 mph 99% 0.00 in 375 W/m2
08:10 59.9 °F 59.3 °F 30.12 in Calm   2 mph 98% 0.00 in 415 W/m2
08:20 60.8 °F 59.3 °F 30.12 in Calm   3 mph 95% 0.00 in 433 W/m2
08:30 61.5 °F 59.8 °F 30.12 in WNW 1 mph 2 mph 94% 0.00 in 490 W/m2
08:40 62.6 °F 60.5 °F 30.12 in Calm   3 mph 93% 0.00 in 528 W/m2
08:50 63.5 °F 60.8 °F 30.12 in SSW 1 mph 3 mph 91% 0.00 in 562 W/m2
09:00 64.7 °F 61.7 °F 30.12 in WNW 1 mph 3 mph 90% 0.00 in 582 W/m2
09:10 67.1 °F 62.8 °F 30.12 in WSW 1 mph 3 mph 86% 0.00 in 654 W/m2
09:20 69.1 °F 64 °F 30.12 in WSW 1 mph 3 mph 84% 0.00 in 680 W/m2
09:30 70.5 °F 64 °F 30.12 in West 1 mph 7 mph 80% 0.00 in 597 W/m2
09:40 71.1 °F 64.6 °F 30.12 in Calm   3 mph 80% 0.00 in 481 W/m2
09:50 71.8 °F 64.5 °F 30.11 in Calm   2 mph 78% 0.00 in 687 W/m2
10:00 72.5 °F 64.1 °F 30.11 in West 1 mph 5 mph 75% 0.00 in 633 W/m2
10:10 73.6 °F 64.4 °F 30.11 in West 1 mph 3 mph 73% 0.00 in 796 W/m2
10:20 74.8 °F 64.4 °F 30.11 in West 1 mph 4 mph 70% 0.00 in 816 W/m2
10:30 76.3 °F 64.5 °F 30.10 in SW 1 mph 4 mph 67% 0.00 in 835 W/m2
10:40 77.2 °F 64.5 °F 30.11 in NNE 3 mph 6 mph 65% 0.00 in 852 W/m2
10:50 77.9 °F 65.2 °F 30.10 in NNE 3 mph 6 mph 65% 0.00 in 342 W/m2
11:00 78.1 °F 64.9 °F 30.10 in NNE 2 mph 6 mph 64% 0.00 in 883 W/m2
11:10 78.8 °F 65.1 °F 30.10 in NE 1 mph 7 mph 63% 0.00 in 897 W/m2
11:20 79.7 °F 65.5 °F 30.10 in NE 3 mph 10 mph 62% 0.00 in 698 W/m2
11:30 79.7 °F 64.1 °F 30.09 in NNE 1 mph 7 mph 59% 0.00 in 919 W/m2
11:40 80.1 °F 64.4 °F 30.09 in North 2 mph 6 mph 59% 0.00 in 928 W/m2
11:50 80.4 °F 64.8 °F 30.09 in NNE 1 mph 7 mph 59% 0.00 in 936 W/m2
12:00 80.8 °F 64.6 °F 30.08 in NNE 1 mph 7 mph 58% 0.00 in 942 W/m2
12:10 81.3 °F 64.6 °F 30.08 in NE 1 mph 5 mph 57% 0.00 in 947 W/m2
12:20 81.5 °F 63.8 °F 30.08 in NNW 1 mph 6 mph 55% 0.00 in 950 W/m2
12:30 81.9 °F 64.1 °F 30.07 in NE 2 mph 6 mph 55% 0.00 in 951 W/m2
12:40 82.4 °F 64.6 °F 30.07 in NNE 1 mph 9 mph 55% 0.00 in 802 W/m2
12:50 82.9 °F 66.6 °F 30.07 in NNE 2 mph 7 mph 58% 0.00 in 950 W/m2
13:00 83.5 °F 65.6 °F 30.07 in NNE 3 mph 8 mph 55% 0.00 in 947 W/m2
13:10 83.7 °F 65.8 °F 30.06 in NNE 3 mph 7 mph 55% 0.00 in 592 W/m2
13:20 83.1 °F 64.2 °F 30.06 in North 5 mph 10 mph 53% 0.00 in 360 W/m2
13:30 82.4 °F 64.1 °F 30.06 in NNW 1 mph 6 mph 54% 0.00 in 272 W/m2
13:40 81.7 °F 63.9 °F 30.06 in NW 2 mph 6 mph 55% 0.00 in 325 W/m2
13:50 81.7 °F 62.3 °F 30.06 in NW 3 mph 6 mph 52% 0.00 in 604 W/m2
14:00 81.7 °F 63.4 °F 30.06 in WNW 3 mph 7 mph 54% 0.00 in 713 W/m2
14:10 81.7 °F 61.2 °F 30.06 in NNW 2 mph 7 mph 50% 0.00 in 883 W/m2
14:20 82 °F 62.7 °F 30.05 in North 1 mph 5 mph 52% 0.00 in 367 W/m2
14:30 82.2 °F 60.6 °F 30.05 in Calm   4 mph 48% 0.00 in 714 W/m2
14:40 82.6 °F 61.5 °F 30.05 in Calm   3 mph 49% 0.00 in 835 W/m2
15:00 84.2 °F 61.8 °F 30.04 in NE 1 mph 7 mph 47% 0.00 in 796 W/m2
15:10 84.7 °F 62.3 °F 30.04 in North 5 mph 9 mph 47% 0.00 in 775 W/m2
15:20 84.8 °F 64.1 °F 30.04 in NNE 1 mph 9 mph 50% 0.00 in 753 W/m2
15:30 85.3 °F 64 °F 30.04 in NNE 1 mph 7 mph 49% 0.00 in 643 W/m2
15:40 84.9 °F 64.2 °F 30.04 in North 2 mph 8 mph 50% 0.00 in 705 W/m2
15:50 84.9 °F 63 °F 30.04 in North 5 mph 7 mph 48% 0.00 in 680 W/m2
16:00 85.1 °F 63.8 °F 30.04 in North 3 mph 7 mph 49% 0.00 in 653 W/m2
16:10 85.5 °F 64.1 °F 30.04 in NNW 2 mph 7 mph 49% 0.00 in 626 W/m2
16:20 85.6 °F 64.3 °F 30.04 in North 2 mph 7 mph 49% 0.00 in 599 W/m2
16:30 85.4 °F 62.9 °F 30.03 in NNE 3 mph 5 mph 47% 0.00 in 570 W/m2
16:40 84.9 °F 63 °F 30.03 in North 3 mph 8 mph 48% 0.00 in 205 W/m2
16:50 84 °F 62.2 °F 30.03 in NNW 2 mph 9 mph 48% 0.00 in 511 W/m2
17:00 84.2 °F 62.4 °F 30.03 in North 3 mph 7 mph 48% 0.00 in 180 W/m2
17:10 83.5 °F 62.3 °F 30.03 in NNW 2 mph 7 mph 49% 0.00 in 451 W/m2
17:20 83.7 °F 62.5 °F 30.03 in North 2 mph 7 mph 49% 0.00 in 420 W/m2
17:30 83.7 °F 61.9 °F 30.02 in North 1 mph 6 mph 48% 0.00 in 175 W/m2
17:40 83.5 °F 62.3 °F 30.02 in NNW 1 mph 5 mph 49% 0.00 in 201 W/m2
17:50 83.5 °F 62.3 °F 30.03 in NNW 2 mph 6 mph 49% 0.00 in 230 W/m2
18:00 83.1 °F 62.6 °F 30.02 in NNW 2 mph 5 mph 50% 0.00 in 209 W/m2
18:10 82.5 °F 63.7 °F 30.02 in NNW 2 mph 5 mph 53% 0.00 in 97 W/m2
18:20 81.7 °F 62.9 °F 30.03 in NNW 1 mph 5 mph 53% 0.00 in 110 W/m2
18:30 81 °F 64.3 °F 30.02 in NNW 1 mph 3 mph 57% 0.00 in 95 W/m2
18:40 80.4 °F 64.8 °F 30.03 in NW 1 mph 2 mph 59% 0.00 in 100 W/m2
18:50 79.7 °F 65.5 °F 30.03 in WNW 1 mph 2 mph 62% 0.00 in 91 W/m2
19:00 78.6 °F 65.4 °F 30.03 in South 1 mph 4 mph 64% 0.00 in 77 W/m2
19:10 78.1 °F 65.4 °F 30.03 in SW 1 mph 3 mph 65% 0.00 in 62 W/m2
19:20 77.5 °F 65.7 °F 30.03 in South 2 mph 3 mph 67% 0.00 in 47 W/m2
19:30 76.6 °F 65.3 °F 30.03 in South 2 mph 4 mph 68% 0.00 in 35 W/m2
19:40 75.7 °F 64.8 °F 30.04 in SW 2 mph 3 mph 69% 0.00 in 23 W/m2
19:50 75 °F 64.2 °F 30.04 in South 2 mph 4 mph 69% 0.00 in 13 W/m2
20:00 74.1 °F 63.7 °F 30.04 in South 1 mph 4 mph 70% 0.00 in 5 W/m2
20:10 73.6 °F 64.4 °F 30.04 in SW 1 mph 3 mph 73% 0.00 in 0 W/m2
20:20 73 °F 64.6 °F 30.04 in SW 1 mph 2 mph 75% 0.00 in 0 W/m2
20:30 72.3 °F 63.6 °F 30.05 in SSW 1 mph 3 mph 74% 0.00 in 0 W/m2
20:40 71.2 °F 62.5 °F 30.05 in South 1 mph 6 mph 74% 0.00 in 0 W/m2
20:50 70.5 °F 62.2 °F 30.05 in South 1 mph 4 mph 75% 0.00 in 0 W/m2
21:00 69.8 °F 61.5 °F 30.06 in SSW 3 mph 5 mph 75% 0.00 in 0 W/m2
21:10 69.1 °F 61.6 °F 30.06 in South 1 mph 4 mph 77% 0.00 in 0 W/m2
21:20 68.5 °F 61 °F 30.06 in South 1 mph 3 mph 77% 0.00 in 0 W/m2
21:30 67.8 °F 60.7 °F 30.06 in SSE 1 mph 3 mph 78% 0.00 in 0 W/m2
21:40 67.3 °F 60.2 °F 30.06 in Calm   3 mph 78% 0.00 in 0 W/m2
21:50 66.9 °F 60.5 °F 30.06 in Calm   1 mph 80% 0.00 in 0 W/m2
22:00 66.6 °F 61.3 °F 30.06 in Calm   1 mph 83% 0.00 in 0 W/m2
22:10 66.2 °F 61.3 °F 30.06 in Calm   2 mph 84% 0.00 in 0 W/m2
22:20 66 °F 61 °F 30.06 in Calm   2 mph 84% 0.00 in 0 W/m2
22:30 65.3 °F 60.6 °F 30.06 in Calm   2 mph 85% 0.00 in 0 W/m2
22:40 64.9 °F 60.3 °F 30.07 in Calm   2 mph 85% 0.00 in 0 W/m2
22:50 64.4 °F 60.1 °F 30.07 in WSW 2 mph 4 mph 86% 0.00 in 0 W/m2
23:00 63.9 °F 59.6 °F 30.07 in Calm   5 mph 86% 0.00 in 0 W/m2
23:10 63.5 °F 59.2 °F 30.07 in WSW 2 mph 2 mph 86% 0.00 in 0 W/m2
23:20 63 °F 58.7 °F 30.07 in West 1 mph 2 mph 86% 0.00 in 0 W/m2
23:30 62.8 °F 58.5 °F 30.08 in Calm   3 mph 86% 0.00 in 0 W/m2
23:40 62.6 °F 58.4 °F 30.08 in SSE 1 mph 3 mph 86% 0.00 in 0 W/m2
23:50 62.4 °F 58.8 °F 30.08 in Calm   2 mph 88% 0.00 in 0 W/m2
Knjazevac, Serbia
Compliments of Weather Underground - 2 mb